Aktuální počasí v Česku a ve světě - METAR

Seznam meteostanic umístěných nejčasteji na letišti v ČR a ve světě

Vyhledat místa podle abecedy:
A B C D E F G H I J K L M N O P Q R S T U V W X Y Z

Filtrovat:

ID stanice:
a/nebo
Název místa (fulltext):
 
Místo (ID)Naposledy načteno 
Šerák (Serak) 22.04.2021 00:00 UTC Zobrazit data
Místo: Šerák
Teplota: 2 °C (pocitová: -5.6 °C)
Vítr: 4 m/s z(e) 280°
Počasí:
Dohlednost: 23 km
Zákl. oblačnosti: N/A
Vlhkost: 87%
Svratouch (Svratouch) 22.04.2021 00:00 UTC Zobrazit data
Místo: Svratouch
Teplota: 4 °C (pocitová: -2 °C)
Vítr: 3 m/s z(e) 240°
Počasí:
Dohlednost: 18 km
Zákl. oblačnosti: N/A
Vlhkost: 87%
Saipan Island (PGSN) 21.04.2021 23:54 UTC Zobrazit METAR
PGSN 212354Z 10SM SCT033 BKN060 32/22 A2988 RMK AO2 SLP139 T03170217 10317 20256 51006
Salzburg (LOWS) 21.04.2021 22:50 UTC Zobrazit METAR
LOWS 212250Z AUTO 14009KT 110V170 9999 FEW080 SCT100 08/06 Q1016
Samara (UWWW) Zatím nenačteno  
San Andres Island (SKSP) 22.04.2021 00:00 UTC Zobrazit METAR
SKSP 220000Z 07008KT 040V100 9999 FEW018 BKN200 28/22 Q1011 RMK A2988
San Jose (MRPV) 21.04.2021 23:50 UTC Zobrazit METAR
MRPV 212350Z 11009KT 9999 FEW020 BKN080 22/17 A2999 NOSIG
San Juan (TJSJ) 21.04.2021 23:56 UTC Zobrazit METAR
TJSJ 212356Z 09011KT 10SM FEW034 SCT100 26/21 A3004 RMK AO2 SLP171 T02610211 10306 20256 53008
San Salvador (MSLP) 21.04.2021 21:50 UTC Zobrazit METAR
MSLP 212150Z 24007KT 210V300 9999 VCSH FEW023 30/24 Q1009 A2979 NOSIG
Sanaa (OYSN) 08.02.2017 13:00 UTC Zobrazit METAR
OYSN 081300Z 03008KT 9999 FEW030 25/M05 Q1022
Santiago (SCEL) 22.04.2021 00:00 UTC Zobrazit METAR
SCEL 220000Z 16008KT CAVOK 16/10 Q1017 NOSIG
Santiago (LEST) 22.04.2021 00:00 UTC Zobrazit METAR
LEST 220000Z 10005KT 080V140 9999 FEW032 10/10 Q1010 TEMPO 3000 BR
Santo Domingo (MDHE) 08.04.2012 12:00 UTC  
Santorini (LGSR) 21.04.2021 17:50 UTC Zobrazit METAR
LGSR 211750Z 27010KT 9999 FEW025 17/10 Q1020
Sao Tome (FPST) 20.04.2021 21:00 UTC Zobrazit METAR
FPST 202100Z 25004KT 9999 FEW025 26/25 Q1011 N0SIG
Sarajevo (LQSA) 22.04.2021 00:00 UTC Zobrazit METAR
LQSA 220000Z VRB01KT CAVOK 03/02 Q1020
Saratov (UWSS) 06.03.2017 17:00 UTC Zobrazit METAR
UWSS 061700Z CAVOK 04/00 Q1024 R12/190055 NOSIG RMK QFE756
Sarmellek (LHSM) 21.04.2021 23:45 UTC Zobrazit METAR
LHSM 212345Z AUTO VRB02KT CAVOK 09/06 Q1016
Seinajoki (EFSI) 21.04.2021 23:50 UTC Zobrazit METAR
EFSI 212350Z AUTO 00000KT CAVOK M02/M03 Q0999
Seoul/Incheon (RKSI) 22.04.2021 00:00 UTC Zobrazit METAR
RKSI 220000Z 05005KT CAVOK 17/07 Q1020 NOSIG
Seville (LEZL) 22.04.2021 00:00 UTC Zobrazit METAR
LEZL 220000Z 19004KT 150V230 9999 SCT045 16/13 Q1014 NOSIG
Seychelles (FSIA) 22.04.2021 00:00 UTC Zobrazit METAR
FSIA 220000Z VRB02KT 9999 SCT023 26/24 Q1010 NOSIG
Shymkent (UAII) Zatím nenačteno  
Siauliai (EYSA) 21.04.2021 21:50 UTC Zobrazit METAR
EYSA 212150Z 24008KT CAVOK 06/02 Q1006 BLU NOSIG
Sibiu (LRSB) 22.04.2021 00:00 UTC Zobrazit METAR
LRSB 220000Z 28001KT CAVOK 02/01 Q1018
Simferopol' (UKFF) Zatím nenačteno  
Singapore (WSSS) 21.04.2021 19:00 UTC Zobrazit METAR
WSSS 211900Z 32003KT 9999 FEW012 SCT016 BKN150 28/26 Q1009 NOSIG
Skopje (LWSK) 22.04.2021 00:00 UTC Zobrazit METAR
LWSK 220000Z VRB01KT CAVOK 03/01 Q1021 NOSIG
Soderhamn (ESNY) Zatím nenačteno  
Sofia (LBSF) 22.04.2021 00:00 UTC Zobrazit METAR
LBSF 220000Z 15003KT 130V190 CAVOK 05/02 Q1020 NOSIG
Sonderborg (EKSB) 21.04.2021 13:50 UTC Zobrazit METAR
EKSB 211350Z 30019KT 260V320 9999 FEW045 SCT060 10/M01 Q1013
Split (LDSP) 22.04.2021 00:00 UTC Zobrazit METAR
LDSP 220000Z AUTO 01005KT CAVOK 10/07 Q1021
St. Denis (FMEE) 22.04.2021 00:00 UTC Zobrazit METAR
FMEE 220000Z AUTO 11008KT 9999 FEW072 BKN140 OVC180 26/20 Q1015 TEMPO 1200 SHRA SCT020CB
St. Georges (TGPY) 22.04.2021 00:00 UTC Zobrazit METAR
TGPY 220000Z 09017KT 9999 FEW020 27/23 Q1014 NOSIG
St. Johns (TAPA) 22.04.2021 00:00 UTC Zobrazit METAR
TAPA 220000Z 08008KT 040V130 9999 FEW018 26/20 Q1017 TEMPO SHRA
St. Petersburg (ULLI) Zatím nenačteno  
St. Pierre Island (LFVP) 21.04.2021 21:00 UTC Zobrazit METAR
LFVP 212100Z 26015KT CAVOK 06/02 Q1013 NOSIG
Stavanger (ENZV) 21.04.2021 23:50 UTC Zobrazit METAR
ENZV 212350Z 33014KT 9999 NSC 05/M01 Q1019
Stockholm (ESSA) 21.04.2021 23:50 UTC Zobrazit METAR
ESSA 212350Z 36004KT CAVOK M01/M01 Q0998 R88/19//95 NOSIG
Strasbourg (LFST) 22.04.2021 00:00 UTC Zobrazit METAR
LFST 220000Z AUTO 32004KT 290V020 CAVOK 09/04 Q1018 NOSIG
Stuttgart (EDDS) 21.04.2021 23:50 UTC Zobrazit METAR
EDDS 212350Z VRB03KT CAVOK 09/03 Q1017
Reklama

Reklama


Newslettter

Počasí na Váš email

Emaily jsou bez reklamy a bez spamu



Odhlásit newsletter




Další české internetové stránky (nejen) o počasí najdete v katalogu TOPlist - weby o počasí nebo vyhledejte na internetu, co jste tu na Počasí Slunečno Slunečnu zatím nenašli:
Přidat mezzi oblíbené stránkyPřidat Slunečno.cz do oblíbených | Nastavit jako HOMEPAGENastavit Slunečno.cz jako HOMEPAGE

Posunout stránku nahoru Posunout stránku nahoru Posunout stránku nahoru
Reklama